createdAt,value
2018-03-27T08:12:35.795Z,9.93
2018-03-27T08:15:03.938Z,9.97
2018-03-27T08:17:32.076Z,9.77
2018-03-27T08:20:00.228Z,10.31
2018-03-27T08:22:32.233Z,9.98
2018-03-27T08:25:00.369Z,10.70
2018-03-27T08:27:29.188Z,10.85
2018-03-27T08:29:57.366Z,11.06
2018-03-27T08:32:25.588Z,11.09
2018-03-27T08:34:57.105Z,10.41
2018-03-27T08:37:25.242Z,10.58
2018-03-27T08:39:57.847Z,10.66
2018-03-27T08:42:26.035Z,10.98
2018-03-27T08:44:54.296Z,10.90
2018-03-27T08:47:26.306Z,11.14
2018-03-27T08:49:57.771Z,11.00
2018-03-27T08:52:26.014Z,11.66
2018-03-27T08:54:54.266Z,12.24
2018-03-27T08:57:22.451Z,11.77
2018-03-27T08:59:53.738Z,11.91
2018-03-27T09:02:22.769Z,11.87
2018-03-27T09:04:51.051Z,12.41
2018-03-27T09:07:19.197Z,11.85
2018-03-27T09:09:47.360Z,11.10
2018-03-27T09:12:17.478Z,11.76
2018-03-27T09:14:45.649Z,11.52
2018-03-27T09:17:15.769Z,11.34
2018-03-27T09:19:43.954Z,11.27
2018-03-27T09:22:17.284Z,11.14
2018-03-27T09:24:45.512Z,11.26
2018-03-27T09:27:14.620Z,11.09
2018-03-27T09:29:49.119Z,10.95
2018-03-27T09:32:17.354Z,11.04
2018-03-27T09:34:45.495Z,11.17
2018-03-27T09:37:13.640Z,11.14
2018-03-27T09:39:42.951Z,12.11
2018-03-27T09:42:11.147Z,11.65
2018-03-27T09:44:39.325Z,11.43
2018-03-27T09:47:07.454Z,11.97
2018-03-27T09:49:35.625Z,11.68
2018-03-27T09:52:03.788Z,11.58
2018-03-27T09:54:32.122Z,11.91
2018-03-27T09:57:00.284Z,12.02
2018-03-27T09:59:28.589Z,12.01
2018-03-27T10:01:56.900Z,11.89
2018-03-27T10:04:25.105Z,11.70
2018-03-27T10:06:53.263Z,11.72
2018-03-27T10:09:21.919Z,11.99
2018-03-27T10:11:50.112Z,11.88
2018-03-27T10:14:18.261Z,12.12
2018-03-27T10:16:46.420Z,11.42
2018-03-27T10:19:14.598Z,11.36
2018-03-27T10:21:42.750Z,11.70
2018-03-27T10:24:10.923Z,11.40
2018-03-27T10:26:39.064Z,10.95
2018-03-27T10:29:07.263Z,10.84
2018-03-27T10:31:35.735Z,11.12
2018-03-27T10:34:03.962Z,11.01
2018-03-27T10:36:32.186Z,11.08
2018-03-27T10:39:00.336Z,11.15
2018-03-27T10:41:28.798Z,11.02
2018-03-27T10:43:57.040Z,11.10
2018-03-27T10:46:25.173Z,11.25
2018-03-27T10:48:53.426Z,11.40
2018-03-27T10:51:21.666Z,11.56
2018-03-27T10:53:49.833Z,12.08
2018-03-27T10:56:18.094Z,12.36
2018-03-27T10:58:46.243Z,12.52
2018-03-27T11:01:14.394Z,13.28
2018-03-27T11:03:42.565Z,12.78
2018-03-27T11:06:10.811Z,12.83
2018-03-27T11:08:38.967Z,12.26
2018-03-27T11:11:07.146Z,11.89
2018-03-27T11:13:35.409Z,12.00
2018-03-27T11:16:03.709Z,12.03
2018-03-27T11:18:31.853Z,12.02
2018-03-27T11:21:00.016Z,12.06
2018-03-27T11:23:28.636Z,12.27
2018-03-27T11:25:56.860Z,12.47
2018-03-27T11:28:25.065Z,12.50
2018-03-27T11:30:53.203Z,12.14
2018-03-27T11:33:21.352Z,11.72
2018-03-27T11:35:49.600Z,12.00
2018-03-27T11:38:17.723Z,11.98
2018-03-27T11:40:46.435Z,12.09
2018-03-27T11:43:14.612Z,12.26
2018-03-27T11:45:42.992Z,12.48
2018-03-27T11:48:11.342Z,12.30
2018-03-27T11:50:39.536Z,12.37
2018-03-27T11:53:07.689Z,12.29
2018-03-27T11:55:36.056Z,12.08
2018-03-27T11:58:04.282Z,12.21
2018-03-27T12:00:32.430Z,12.36
2018-03-27T12:03:00.775Z,12.54
2018-03-27T12:05:28.953Z,12.57
2018-03-27T12:07:57.119Z,12.47
2018-03-27T12:10:25.409Z,12.25
2018-03-27T12:12:53.613Z,12.59
2018-03-27T12:15:21.738Z,12.91
2018-03-27T12:17:49.962Z,12.50
2018-03-27T12:20:18.185Z,12.45
2018-03-27T12:22:46.415Z,12.35
2018-03-27T12:25:14.599Z,12.35
2018-03-27T12:27:42.776Z,12.58
2018-03-27T12:30:11.020Z,12.66
2018-03-27T12:32:39.237Z,12.75
2018-03-27T12:35:07.409Z,12.78
2018-03-27T12:37:35.608Z,13.18
2018-03-27T12:40:03.796Z,13.09
2018-03-27T12:42:31.981Z,12.76
2018-03-27T12:45:00.166Z,12.69
2018-03-27T12:47:28.325Z,12.65
2018-03-27T12:49:56.465Z,12.77
2018-03-27T12:52:24.659Z,12.58
2018-03-27T12:54:52.829Z,12.50
2018-03-27T12:57:21.043Z,12.46
2018-03-27T12:59:49.332Z,12.60
2018-03-27T13:02:17.476Z,12.74
2018-03-27T13:04:45.614Z,12.77
2018-03-27T13:07:13.786Z,12.59
2018-03-27T13:09:41.934Z,12.92
2018-03-27T13:12:10.122Z,12.83
2018-03-27T13:14:38.267Z,12.71
2018-03-27T13:17:06.473Z,12.77
2018-03-27T13:19:34.647Z,12.85
2018-03-27T13:22:02.790Z,12.49
2018-03-27T13:24:30.957Z,12.47
2018-03-27T13:26:59.106Z,12.38
2018-03-27T13:29:27.274Z,12.60
2018-03-27T15:38:37.179Z,20.16
2018-03-27T15:41:05.393Z,18.11
2018-03-27T15:43:33.545Z,16.73
2018-03-27T15:46:01.680Z,15.87
2018-03-27T15:48:29.847Z,15.19
2018-03-27T15:50:58.011Z,14.73
2018-03-27T15:53:26.167Z,14.06
2018-03-27T15:55:54.313Z,13.74
2018-03-27T15:58:22.459Z,13.48
2018-03-27T16:00:50.635Z,13.17
2018-03-27T16:03:18.791Z,12.94
2018-03-27T16:05:46.962Z,12.81
2018-03-27T16:08:15.105Z,12.76
2018-03-27T16:10:43.261Z,12.58
2018-03-27T16:13:11.408Z,12.20
2018-03-27T16:15:39.667Z,12.13
2018-03-27T16:18:07.816Z,12.15
2018-03-27T16:20:35.983Z,12.15
2018-03-27T16:23:04.141Z,11.85
2018-03-27T16:25:32.274Z,12.02
2018-03-27T16:28:00.405Z,11.91
2018-03-27T16:30:28.570Z,11.74
2018-03-27T16:32:56.728Z,11.52
2018-03-27T16:35:24.878Z,11.45
2018-03-27T16:37:53.062Z,11.69
2018-03-27T16:40:21.217Z,11.65
2018-03-27T16:42:49.406Z,11.66
2018-03-27T16:45:17.542Z,11.63
2018-03-27T16:47:45.692Z,11.54
2018-03-27T16:50:13.863Z,11.39
2018-03-27T16:52:42.005Z,11.46
2018-03-27T16:55:10.154Z,11.49
2018-03-27T16:57:38.308Z,11.17
2018-03-27T17:00:06.494Z,11.16
2018-03-27T17:02:35.578Z,11.25
2018-03-27T17:05:03.775Z,11.10
2018-03-27T17:07:31.949Z,10.86
2018-03-27T17:10:00.089Z,10.77
2018-03-27T17:12:28.233Z,10.61
2018-03-27T17:14:56.401Z,10.54
2018-03-27T17:17:24.533Z,10.55
2018-03-27T17:19:52.676Z,10.56
2018-03-27T17:22:20.830Z,10.58
2018-03-27T17:24:48.975Z,10.64
2018-03-27T17:27:17.113Z,10.86
2018-03-27T17:29:45.305Z,10.75
2018-03-27T17:32:13.444Z,10.70
2018-03-27T17:34:41.627Z,10.70
2018-03-27T17:37:09.788Z,10.72
2018-03-27T17:39:37.891Z,10.78
2018-03-27T17:42:06.044Z,10.58
2018-03-27T17:44:34.183Z,10.40
2018-03-27T17:47:02.324Z,10.28
2018-03-27T17:49:30.508Z,10.32
2018-03-27T17:51:58.654Z,10.09
2018-03-27T17:54:26.787Z,10.15
2018-03-27T17:56:54.968Z,10.54
2018-03-27T17:59:23.090Z,10.62
2018-03-27T18:01:51.254Z,10.66
2018-03-27T18:04:19.409Z,10.45
2018-03-27T18:06:47.556Z,10.77
2018-03-27T18:09:15.705Z,10.82
2018-03-27T18:11:43.869Z,10.74
2018-03-27T18:14:12.011Z,10.91
2018-03-27T18:16:40.162Z,10.85
2018-03-27T18:19:08.302Z,10.87
2018-03-27T18:21:36.872Z,10.84
2018-03-27T18:24:05.035Z,10.77
2018-03-27T18:26:33.188Z,11.00
2018-03-27T18:29:01.323Z,10.66
2018-03-27T18:31:29.565Z,10.41
2018-03-27T18:33:57.690Z,10.51
2018-03-27T18:36:25.838Z,10.75
2018-03-27T18:38:53.950Z,10.64
2018-03-27T18:41:22.096Z,10.64
2018-03-27T18:43:50.268Z,10.77
2018-03-27T18:46:18.426Z,10.78
2018-03-27T18:48:46.558Z,10.64
2018-03-27T18:51:14.696Z,10.28
2018-03-27T18:53:42.820Z,10.37
2018-03-27T18:56:10.965Z,10.48
2018-03-27T18:58:39.131Z,10.58
2018-03-27T19:01:07.284Z,10.54
2018-03-27T19:03:35.398Z,10.65
2018-03-27T19:06:07.174Z,10.49
2018-03-27T19:08:35.330Z,10.59
2018-03-27T19:11:03.488Z,10.49
2018-03-27T19:13:31.705Z,10.54
2018-03-27T19:15:59.953Z,10.52
2018-03-27T19:18:28.096Z,10.57
2018-03-27T19:20:56.277Z,10.22
2018-03-27T19:23:24.387Z,10.46
2018-03-27T19:25:52.567Z,10.14
2018-03-27T19:28:20.717Z,10.01
2018-03-27T19:30:48.917Z,10.16
2018-03-27T19:33:17.063Z,10.16
2018-03-27T19:35:45.190Z,10.06
2018-03-27T19:38:13.312Z,10.27
2018-03-27T19:40:41.748Z,9.87
2018-03-27T19:43:13.744Z,9.80
2018-03-27T19:45:42.240Z,9.77
2018-03-27T19:48:11.423Z,9.84
2018-03-27T19:50:41.416Z,9.98
2018-03-27T19:53:09.565Z,10.04
2018-03-27T19:55:37.700Z,9.92
2018-03-27T19:58:09.561Z,9.83
2018-03-27T20:00:37.706Z,9.72
2018-03-27T20:03:05.852Z,9.80
2018-03-27T20:05:33.995Z,9.80
2018-03-27T20:08:02.167Z,9.56
2018-03-27T20:10:30.306Z,9.56
2018-03-27T20:12:58.444Z,9.84
2018-03-27T20:15:26.739Z,9.81
2018-03-27T20:17:55.056Z,9.69
2018-03-27T20:20:23.314Z,9.72
2018-03-27T20:22:51.446Z,9.81
2018-03-27T20:25:19.591Z,9.74
2018-03-27T20:27:47.746Z,9.74
2018-03-27T20:30:19.951Z,9.80
2018-03-27T20:32:48.322Z,10.00
2018-03-27T20:35:18.106Z,9.84
2018-03-27T20:37:47.325Z,9.95
2018-03-27T20:40:16.487Z,9.92
2018-03-27T20:42:46.567Z,10.01
2018-03-27T20:45:15.241Z,9.92
2018-03-27T20:47:43.928Z,9.76
2018-03-27T20:50:12.222Z,9.72
2018-03-27T20:52:40.902Z,9.79
2018-03-27T20:55:10.785Z,9.80
2018-03-27T20:57:40.320Z,9.54
2018-03-27T21:00:11.695Z,9.57
2018-03-27T21:02:40.155Z,9.45
2018-03-27T21:05:08.332Z,9.38
2018-03-27T21:07:36.477Z,9.50
2018-03-27T21:10:04.630Z,9.48
2018-03-27T21:12:32.768Z,9.39
2018-03-27T21:15:02.880Z,9.48
2018-03-27T21:17:32.570Z,9.46
2018-03-27T21:20:03.054Z,9.65
2018-03-27T21:22:33.446Z,9.63
2018-03-27T21:25:05.722Z,9.28
2018-03-27T21:27:36.689Z,9.29
2018-03-27T21:30:07.111Z,9.21
2018-03-27T21:32:35.418Z,9.20
2018-03-27T21:35:03.579Z,9.41
2018-03-27T21:37:31.733Z,9.25
2018-03-27T21:39:59.913Z,9.19
2018-03-27T21:42:28.061Z,9.56
2018-03-27T21:44:56.219Z,9.71
2018-03-27T21:47:24.435Z,9.83
2018-03-27T21:49:52.574Z,9.75
2018-03-27T21:52:20.724Z,9.73
2018-03-27T21:54:48.844Z,9.62
2018-03-27T21:57:17.002Z,9.89
2018-03-27T21:59:45.162Z,9.81
2018-03-27T22:02:13.300Z,9.98
2018-03-27T22:04:41.445Z,10.03
2018-03-27T22:07:09.646Z,9.86
2018-03-27T22:09:37.943Z,9.89
2018-03-27T22:12:06.089Z,9.97
2018-03-27T22:14:34.241Z,9.92
2018-03-27T22:17:02.446Z,9.97
2018-03-27T22:19:30.610Z,9.89
2018-03-27T22:21:58.767Z,9.79
2018-03-27T22:24:26.952Z,9.68
2018-03-27T22:26:55.062Z,9.80
2018-03-27T22:29:23.300Z,9.80
2018-03-27T22:31:54.739Z,9.85
2018-03-27T22:34:22.911Z,9.76
2018-03-27T22:36:51.077Z,9.70
2018-03-27T22:39:19.225Z,9.75
2018-03-27T22:41:47.368Z,9.82
2018-03-27T22:44:15.494Z,9.87
2018-03-27T22:46:43.617Z,10.03
2018-03-27T22:49:11.772Z,10.04
2018-03-27T22:51:39.951Z,10.16
2018-03-27T22:54:08.117Z,10.25
2018-03-27T22:56:36.259Z,10.38
2018-03-27T22:59:04.404Z,10.44
2018-03-27T23:01:32.576Z,10.52
2018-03-27T23:04:00.734Z,10.53
2018-03-27T23:06:28.884Z,10.57
2018-03-27T23:08:57.038Z,10.39
2018-03-27T23:11:25.188Z,10.38
2018-03-27T23:13:53.345Z,10.33
2018-03-27T23:16:21.490Z,10.29
2018-03-27T23:18:49.701Z,10.32
2018-03-27T23:21:17.862Z,10.36
2018-03-27T23:23:46.005Z,10.38
2018-03-27T23:26:14.146Z,10.42
2018-03-27T23:28:42.298Z,10.39
2018-03-27T23:31:10.419Z,10.52
2018-03-27T23:33:38.585Z,10.56
2018-03-27T23:36:06.705Z,10.70
2018-03-27T23:38:34.864Z,10.68
2018-03-27T23:41:03.010Z,10.80
2018-03-27T23:43:31.163Z,10.80
2018-03-27T23:45:59.369Z,10.90
2018-03-27T23:48:27.482Z,10.88
2018-03-27T23:50:55.626Z,10.90
2018-03-27T23:53:23.813Z,10.93
2018-03-27T23:55:52.043Z,10.98
2018-03-27T23:58:20.198Z,11.01
